Time;durP1;ratioP1;P1;durP2;ratioP2;P2;SDS_P1;SDS_P2;PMS_P1;PMS_P2;Temp;Humidity;BMP_temperature;BMP_pressure;BME280_temperature;BME280_humidity;BME280_pressure;Samples;Min_cycle;Max_cycle;Signal;HPM_P1;HPM_P2
2023/11/20 00:00:17;;;;;;;2.10;2.00;;;;;;;4.49;91.96;99304.75;5034329;28;20041;-71
2023/11/20 00:02:48;;;;;;;1.05;0.95;;;;;;;4.49;91.81;99303.06;5033954;28;20051;-71
2023/11/20 00:05:19;;;;;;;2.90;1.98;;;;;;;4.44;92.23;99296.25;5034206;28;20525;-71
2023/11/20 00:07:48;;;;;;;2.00;1.90;;;;;;;4.39;92.26;99277.66;5033918;28;20046;-71
2023/11/20 00:10:18;;;;;;;2.55;2.35;;;;;;;4.60;92.06;99295.69;5034396;28;20041;-71
2023/11/20 00:12:47;;;;;;;2.25;1.63;;;;;;;4.58;92.08;99299.88;5033912;28;20041;-71
2023/11/20 00:15:16;;;;;;;1.45;1.35;;;;;;;4.61;92.19;99304.94;5033998;28;20507;-72
2023/11/20 00:17:47;;;;;;;2.45;2.25;;;;;;;4.64;92.23;99305.00;5034025;28;20504;-71
2023/11/20 00:20:18;;;;;;;0.70;0.70;;;;;;;4.67;92.09;99310.97;5034122;28;20064;-71
2023/11/20 00:22:46;;;;;;;2.97;2.33;;;;;;;4.65;91.87;99314.31;5033737;28;20073;-71
2023/11/20 00:25:15;;;;;;;2.95;2.65;;;;;;;4.63;92.04;99309.22;5033662;28;20064;-72
2023/11/20 00:27:44;;;;;;;1.73;1.38;;;;;;;4.59;92.21;99302.41;5033701;28;20538;-71
2023/11/20 00:30:14;;;;;;;1.10;1.05;;;;;;;4.56;92.18;99301.50;5034238;28;20045;-71
2023/11/20 00:32:43;;;;;;;2.15;1.05;;;;;;;4.57;92.10;99308.25;5032477;28;20390;-71
2023/11/20 00:35:16;;;;;;;3.17;2.40;;;;;;;4.53;92.23;99301.47;5033756;28;20132;-71
2023/11/20 00:37:47;;;;;;;1.35;1.25;;;;;;;4.55;92.42;99300.66;5033548;28;20080;-71
2023/11/20 00:40:18;;;;;;;1.35;1.25;;;;;;;4.60;92.25;99280.53;5033769;28;20128;-71
2023/11/20 00:42:47;;;;;;;1.35;1.25;;;;;;;4.49;91.90;99274.41;5016138;28;20057;-71
2023/11/20 00:45:16;;;;;;;1.27;1.17;;;;;;;4.58;92.35;99292.28;5048779;28;20046;-71
2023/11/20 00:47:45;;;;;;;0.70;0.70;;;;;;;4.59;92.12;99291.44;5033662;28;20484;-71
2023/11/20 00:50:14;;;;;;;2.23;1.40;;;;;;;4.60;92.08;99288.09;5015994;28;20140;-71
2023/11/20 00:52:43;;;;;;;0.97;0.97;;;;;;;4.55;92.26;99284.66;5033192;28;20491;-71
2023/11/20 00:55:15;;;;;;;3.17;2.15;;;;;;;4.49;91.94;99279.47;5033581;28;20306;-72
2023/11/20 00:57:43;;;;;;;1.38;1.02;;;;;;;4.54;92.16;99293.91;5035016;28;20049;-71
2023/11/20 01:00:14;;;;;;;;;;;;;;;4.59;92.39;99281.34;5038437;28;20444;-71
2023/11/20 01:02:44;;;;;;;2.60;1.65;;;;;;;4.63;92.67;99283.09;5036483;28;19921;-72
2023/11/20 01:05:13;;;;;;;1.60;1.38;;;;;;;4.61;92.29;99277.16;5036291;28;20068;-71
2023/11/20 01:07:42;;;;;;;3.08;2.80;;;;;;;4.58;92.00;99259.44;5037548;28;20084;-72
2023/11/20 01:10:11;;;;;;;2.13;1.48;;;;;;;4.57;92.03;99262.78;5037268;28;20060;-72
2023/11/20 01:12:42;;;;;;;1.15;0.88;;;;;;;4.57;92.39;99272.88;5037091;28;20048;-72
2023/11/20 01:15:11;;;;;;;1.10;1.05;;;;;;;4.52;92.24;99261.84;5036440;28;20041;-72
2023/11/20 01:17:40;;;;;;;1.98;1.85;;;;;;;4.50;92.25;99255.94;5037041;28;20136;-72
2023/11/20 01:20:11;;;;;;;2.20;2.00;;;;;;;4.54;92.12;99267.78;5036998;28;20045;-72
2023/11/20 01:22:40;;;;;;;3.17;1.73;;;;;;;4.58;92.22;99264.50;5036986;28;20056;-72
2023/11/20 01:25:09;;;;;;;1.95;1.77;;;;;;;4.62;92.10;99268.75;5035602;28;20056;-72
2023/11/20 01:27:39;;;;;;;1.90;1.75;;;;;;;4.63;92.45;99262.91;5036887;28;20049;-72
2023/11/20 01:30:10;;;;;;;1.80;1.47;;;;;;;4.65;92.30;99256.19;5036848;28;20049;-72
2023/11/20 01:32:39;;;;;;;3.13;1.98;;;;;;;4.61;92.52;99252.75;5037358;28;20274;-72
2023/11/20 01:35:10;;;;;;;7.00;4.13;;;;;;;4.57;91.92;99255.19;5036992;28;20496;-71
2023/11/20 01:37:40;;;;;;;2.47;2.28;;;;;;;4.54;91.97;99242.50;5036876;28;20077;-72
2023/11/20 01:40:10;;;;;;;4.22;3.38;;;;;;;4.49;92.45;99239.91;5035770;28;20034;-72
2023/11/20 01:42:39;;;;;;;4.15;3.08;;;;;;;4.45;92.42;99237.31;5036876;28;20431;-72
2023/11/20 01:45:11;;;;;;;1.58;1.48;;;;;;;4.54;92.33;99257.66;5035521;28;20560;-73
2023/11/20 01:47:39;;;;;;;2.50;1.60;;;;;;;4.57;92.54;99273.75;5036459;28;20055;-73
2023/11/20 01:50:11;;;;;;;1.38;1.23;;;;;;;4.57;92.13;99272.88;5035279;28;20041;-72
2023/11/20 01:52:42;;;;;;;0.95;0.95;;;;;;;4.56;92.62;99278.75;5036206;28;20553;-72
2023/11/20 01:55:13;;;;;;;1.75;1.40;;;;;;;4.60;92.48;99280.53;5036427;28;20045;-72
2023/11/20 01:57:46;;;;;;;2.25;2.05;;;;;;;4.61;92.31;99274.63;5036370;28;20100;-72
2023/11/20 02:00:19;;;;;;;6.15;3.05;;;;;;;4.67;92.52;99274.75;5035454;28;20049;-72
2023/11/20 02:02:50;;;;;;;2.22;2.03;;;;;;;4.66;92.19;99268.84;5036236;28;20499;-72
2023/11/20 02:05:19;;;;;;;1.08;0.95;;;;;;;4.59;92.50;99266.19;5034987;28;20133;-72
2023/11/20 02:07:48;;;;;;;2.38;2.20;;;;;;;4.27;92.21;99216.81;5034773;28;20072;-72
2023/11/20 02:10:18;;;;;;;0.70;0.70;;;;;;;4.58;92.42;99269.53;5036130;28;20057;-71
2023/11/20 02:12:49;;;;;;;3.20;2.50;;;;;;;4.63;92.50;99278.88;5036292;28;20049;-72
2023/11/20 02:15:21;;;;;;;1.13;1.02;;;;;;;4.66;92.37;99273.03;5036084;28;20041;-70
2023/11/20 02:17:50;;;;;;;3.97;2.65;;;;;;;4.70;92.51;99274.81;5034670;28;20053;-73
2023/11/20 02:20:19;;;;;;;1.02;1.02;;;;;;;4.74;92.61;99277.41;5034722;28;20496;-72
2023/11/20 02:22:48;;;;;;;;;;;;;;;4.78;92.94;99280.81;5036687;28;20053;-72
2023/11/20 02:25:19;;;;;;;1.45;1.35;;;;;;;4.75;92.76;99286.66;5034679;28;19921;-72
2023/11/20 02:27:58;;;;;;;2.22;1.98;;;;;;;4.75;92.71;99283.31;5035781;28;20053;-72
2023/11/20 02:30:30;;;;;;;3.28;2.13;;;;;;;4.78;92.53;99283.34;5035157;28;20365;-72
2023/11/20 02:32:58;;;;;;;2.67;2.05;;;;;;;4.75;92.74;99288.38;5035789;28;20053;-71
2023/11/20 02:35:28;;;;;;;2.38;2.17;;;;;;;4.72;92.68;99283.25;5051267;28;20096;-73
2023/11/20 02:37:57;;;;;;;0.98;0.98;;;;;;;4.70;92.61;99284.91;5034843;28;20365;-71
2023/11/20 02:40:26;;;;;;;1.83;1.73;;;;;;;4.68;92.68;99266.31;5034242;28;20037;-70
2023/11/20 02:42:55;;;;;;;2.37;2.00;;;;;;;4.70;92.71;99279.84;5035564;28;20054;-71
2023/11/20 02:45:24;;;;;;;5.93;4.75;;;;;;;4.65;92.78;99267.13;5035350;28;20135;-72
2023/11/20 02:47:54;;;;;;;6.60;2.35;;;;;;;4.56;92.84;99261.06;5035771;28;20128;-71
2023/11/20 02:50:23;;;;;;;1.67;1.50;;;;;;;4.55;92.86;99264.44;5035170;28;20136;-72
2023/11/20 02:52:52;;;;;;;0.73;0.73;;;;;;;4.55;92.66;99256.84;5035108;28;20124;-72
2023/11/20 02:55:21;;;;;;;1.77;1.67;;;;;;;4.53;92.96;99261.03;5034440;28;20351;-72
2023/11/20 02:57:49;;;;;;;2.80;2.60;;;;;;;4.51;92.78;99255.94;5035760;28;20049;-72
2023/11/20 03:00:19;;;;;;;1.00;0.95;;;;;;;4.51;92.92;99248.34;5035121;28;20042;-73
2023/11/20 03:02:48;;;;;;;3.60;3.08;;;;;;;4.48;92.92;99247.47;5035225;28;20491;-72
2023/11/20 03:05:19;;;;;;;3.85;2.33;;;;;;;4.48;93.30;99242.44;5035243;28;20095;-72
2023/11/20 03:07:48;;;;;;;2.25;1.90;;;;;;;4.36;93.10;99227.91;5034998;28;20053;-72
2023/11/20 03:10:18;;;;;;;3.75;3.45;;;;;;;4.44;92.93;99238.16;5035224;28;20046;-72
2023/11/20 03:12:49;;;;;;;2.63;2.42;;;;;;;4.32;93.84;99221.09;5034782;28;20048;-72
2023/11/20 03:15:18;;;;;;;0.45;0.45;;;;;;;4.43;93.65;99244.03;5034954;28;20088;-73
2023/11/20 03:17:47;;;;;;;2.53;2.15;;;;;;;4.41;93.25;99250.72;5034780;28;20559;-71
2023/11/20 03:20:16;;;;;;;5.18;2.58;;;;;;;4.43;93.69;99249.94;5034317;28;20072;-73
2023/11/20 03:22:46;;;;;;;0.73;0.73;;;;;;;4.45;93.66;99242.38;5034860;28;20049;-70
2023/11/20 03:25:15;;;;;;;3.13;1.98;;;;;;;4.49;93.59;99234.00;5033645;28;20511;-72
2023/11/20 03:27:44;;;;;;;1.50;1.40;;;;;;;4.51;93.75;99238.25;5035409;28;20584;-70
2023/11/20 03:30:14;;;;;;;1.05;1.02;;;;;;;4.52;93.84;99234.91;5034870;28;20084;-72
2023/11/20 03:32:42;;;;;;;;;;;;;;;4.52;93.65;99234.06;5034825;28;20049;-72
2023/11/20 03:35:11;;;;;;;1.60;1.50;;;;;;;4.51;93.80;99243.31;5034748;28;20290;-72
2023/11/20 03:37:40;;;;;;;2.78;2.58;;;;;;;4.52;93.99;99239.09;5034404;28;20051;-72
2023/11/20 03:40:13;;;;;;;2.45;2.25;;;;;;;4.55;93.96;99245.09;5034681;28;20033;-73
2023/11/20 03:42:42;;;;;;;3.67;2.22;;;;;;;4.52;93.87;99246.69;5034317;28;20052;-73
2023/11/20 03:45:11;;;;;;;1.20;1.10;;;;;;;4.49;93.77;99244.97;5034397;28;20121;-72
2023/11/20 03:47:40;;;;;;;;;;;;;;;4.46;94.01;99244.91;5034626;28;20291;-72
2023/11/20 03:50:09;;;;;;;2.10;1.95;;;;;;;4.07;94.37;99189.56;5034149;28;19928;-73
2023/11/20 03:52:38;;;;;;;;;;;;;;;4.46;94.17;99249.13;5033400;28;20128;-72
2023/11/20 03:55:09;;;;;;;1.42;1.33;;;;;;;4.46;93.95;99244.91;5034436;28;19921;-73
2023/11/20 03:57:40;;;;;;;3.50;2.35;;;;;;;4.43;94.29;99249.94;5034407;28;20095;-72
2023/11/20 04:00:09;;;;;;;2.03;1.92;;;;;;;4.43;94.53;99233.91;5049944;28;20049;-73
2023/11/20 04:02:38;;;;;;;1.00;1.00;;;;;;;4.45;94.24;99238.16;5033921;28;20048;-72
2023/11/20 04:05:08;;;;;;;4.27;2.57;;;;;;;4.46;94.52;99232.28;5049861;28;20037;-73
2023/11/20 04:07:37;;;;;;;4.63;2.95;;;;;;;4.44;94.54;99216.25;5033748;28;20048;-71
2023/11/20 04:10:07;;;;;;;0.85;0.85;;;;;;;4.40;94.40;99211.97;5033834;28;20065;-72
2023/11/20 04:12:37;;;;;;;3.05;2.78;;;;;;;4.42;94.53;99212.00;5033842;28;20049;-73
2023/11/20 04:15:08;;;;;;;4.15;3.22;;;;;;;4.44;94.35;99210.38;5032897;28;20037;-72
2023/11/20 04:17:39;;;;;;;0.90;0.88;;;;;;;4.43;94.85;99206.13;5034099;28;20071;-72
2023/11/20 04:20:08;;;;;;;;;;;;;;;4.49;94.40;99208.75;5034129;28;20492;-73
2023/11/20 04:22:39;;;;;;;1.20;1.13;;;;;;;4.52;94.47;99208.78;5034019;28;19928;-73
2023/11/20 04:25:08;;;;;;;2.60;2.28;;;;;;;4.43;95.10;99193.50;5033707;28;20045;-73
2023/11/20 04:27:37;;;;;;;1.63;1.52;;;;;;;4.49;94.83;99213.78;5032659;28;20515;-72
2023/11/20 04:30:10;;;;;;;3.90;2.58;;;;;;;4.51;94.83;99213.00;5033776;28;20041;-72
2023/11/20 04:32:39;;;;;;;2.42;2.22;;;;;;;4.53;94.90;99206.31;5033616;28;20072;-73
2023/11/20 04:35:09;;;;;;;1.83;1.73;;;;;;;4.55;94.95;99224.88;5032690;28;20041;-72
2023/11/20 04:37:38;;;;;;;1.85;1.75;;;;;;;4.57;94.99;99212.25;5033790;28;20283;-71
2023/11/20 04:40:08;;;;;;;2.20;1.75;;;;;;;4.58;95.03;99219.00;5033723;28;20042;-73
2023/11/20 04:42:37;;;;;;;1.33;1.23;;;;;;;4.57;94.91;99212.25;5033886;28;20077;-73
2023/11/20 04:45:10;;;;;;;2.45;2.25;;;;;;;4.44;95.06;99185.09;5033352;28;20492;-73
2023/11/20 04:47:40;;;;;;;2.92;2.50;;;;;;;4.54;95.03;99212.19;5033426;28;20045;-73
2023/11/20 04:50:10;;;;;;;3.20;1.73;;;;;;;4.54;95.23;99217.25;5033762;28;20123;-73
2023/11/20 04:52:38;;;;;;;;;;;;;;;4.54;95.02;99227.34;5033783;28;20491;-73
2023/11/20 04:55:08;;;;;;;2.67;2.25;;;;;;;4.46;95.00;99218.81;5033819;28;19928;-73
2023/11/20 04:57:37;;;;;;;1.35;1.25;;;;;;;4.54;95.11;99217.25;5034228;28;20092;-73
2023/11/20 05:00:10;;;;;;;4.75;2.60;;;;;;;4.57;95.10;99218.16;5048777;28;20510;-73
2023/11/20 05:02:40;;;;;;;1.13;1.02;;;;;;;4.54;95.26;99219.78;5033391;28;20054;-73
2023/11/20 05:05:10;;;;;;;4.80;2.42;;;;;;;4.49;95.00;99206.22;5033487;28;20038;-72
2023/11/20 05:07:39;;;;;;;3.03;2.72;;;;;;;4.45;94.88;99201.94;5033518;28;20133;-73
2023/11/20 05:10:09;;;;;;;1.95;1.85;;;;;;;4.40;95.11;99203.53;5032325;28;20450;-72
2023/11/20 05:12:38;;;;;;;3.58;3.28;;;;;;;4.39;95.10;99212.78;5032138;28;20045;-72
2023/11/20 05:15:10;;;;;;;0.80;0.80;;;;;;;4.41;95.09;99211.16;5033404;28;20044;-72
2023/11/20 05:17:39;;;;;;;3.00;2.08;;;;;;;4.40;95.05;99209.47;5033135;28;20124;-72
2023/11/20 05:20:10;;;;;;;6.10;1.73;;;;;;;4.39;94.82;99201.88;5033211;28;20049;-73
2023/11/20 05:22:40;;;;;;;1.90;1.80;;;;;;;4.35;95.27;99190.00;5033753;28;20065;-73
2023/11/20 05:25:09;;;;;;;0.80;0.80;;;;;;;4.39;95.12;99196.81;5032164;28;20545;-73
2023/11/20 05:27:38;;;;;;;4.60;2.35;;;;;;;4.44;95.01;99195.22;5033120;28;20045;-72
2023/11/20 05:30:13;;;;;;;3.95;2.22;;;;;;;4.45;95.00;99191.84;5033361;28;20403;-73
2023/11/20 05:32:42;;;;;;;2.42;1.92;;;;;;;4.45;95.25;99197.75;5033004;28;20076;-72
2023/11/20 05:35:11;;;;;;;1.15;1.10;;;;;;;4.47;95.29;99195.22;5033588;28;20434;-72
2023/11/20 05:37:40;;;;;;;1.85;0.95;;;;;;;4.48;95.24;99202.84;5033001;28;20042;-73
2023/11/20 05:40:10;;;;;;;3.85;3.35;;;;;;;4.52;95.01;99203.75;5033038;28;20045;-73
2023/11/20 05:42:41;;;;;;;4.57;3.75;;;;;;;4.47;95.32;99205.34;5034173;28;20116;-73
2023/11/20 05:45:10;;;;;;;0.95;0.95;;;;;;;4.45;95.47;99201.94;5036664;28;20045;-72
2023/11/20 05:47:40;;;;;;;;;;;;;;;4.46;95.10;99203.66;5037010;28;20057;-73
2023/11/20 05:50:10;;;;;;;3.92;3.13;;;;;;;4.44;95.56;99205.31;5036826;28;19921;-73
2023/11/20 05:52:39;;;;;;;;;;;;;;;4.43;95.29;99201.06;5037555;28;20060;-72
2023/11/20 05:55:08;;;;;;;1.08;1.00;;;;;;;4.40;95.10;99193.44;5036728;28;20379;-73
2023/11/20 05:57:38;;;;;;;3.55;3.22;;;;;;;4.43;95.15;99208.66;5036536;28;20132;-73
2023/11/20 06:00:10;;;;;;;1.15;1.05;;;;;;;4.40;95.05;99211.13;5035017;28;20049;-73
2023/11/20 06:02:41;;;;;;;2.65;2.17;;;;;;;4.39;95.36;99209.44;5036565;28;20049;-73
2023/11/20 06:05:10;;;;;;;0.98;0.98;;;;;;;4.33;95.28;99216.91;5035260;28;20045;-73
2023/11/20 06:07:39;;;;;;;2.95;2.75;;;;;;;4.36;95.01;99222.88;5035895;28;20128;-72
2023/11/20 06:10:09;;;;;;;1.42;1.33;;;;;;;4.40;95.23;99223.75;5036172;28;20068;-73
2023/11/20 06:12:39;;;;;;;0.98;0.98;;;;;;;4.40;95.14;99223.75;5036101;28;20510;-72
2023/11/20 06:15:09;;;;;;;2.47;2.28;;;;;;;4.45;95.47;99232.25;5034850;28;20049;-73
2023/11/20 06:17:38;;;;;;;1.75;1.55;;;;;;;4.47;95.46;99238.19;5036995;28;20364;-72
2023/11/20 06:20:10;;;;;;;7.18;2.13;;;;;;;4.41;95.32;99230.53;5036316;28;20063;-73
2023/11/20 06:22:41;;;;;;;0.85;0.85;;;;;;;4.42;95.43;99237.25;5036160;28;20048;-73
2023/11/20 06:25:12;;;;;;;2.97;2.40;;;;;;;4.28;95.54;99226.94;5035861;28;20050;-73
2023/11/20 06:27:41;;;;;;;3.67;2.90;;;;;;;4.39;95.53;99232.19;5034686;28;20046;-73
2023/11/20 06:30:10;;;;;;;3.00;1.88;;;;;;;4.41;95.56;99241.47;5035670;28;20037;-73
2023/11/20 06:32:40;;;;;;;5.60;1.65;;;;;;;4.43;95.78;99233.91;5035587;28;20103;-73
2023/11/20 06:35:11;;;;;;;;;;;;;;;4.49;95.52;99234.00;5036047;28;20053;-73
2023/11/20 06:37:40;;;;;;;1.55;1.25;;;;;;;4.45;95.64;99237.31;5035836;28;19952;-73
2023/11/20 06:40:10;;;;;;;0.63;0.63;;;;;;;4.37;95.54;99228.75;5051113;28;20063;-72
2023/11/20 06:42:40;;;;;;;0.90;0.80;;;;;;;4.38;95.69;99235.50;5035801;28;20395;-73
2023/11/20 06:45:09;;;;;;;1.53;1.30;;;;;;;4.40;95.63;99229.66;5035832;28;20069;-72
2023/11/20 06:47:38;;;;;;;1.40;1.33;;;;;;;4.38;95.54;99230.47;5034023;28;20037;-72
2023/11/20 06:50:08;;;;;;;1.50;1.40;;;;;;;4.34;95.73;99223.66;5038074;28;20045;-73
2023/11/20 06:52:39;;;;;;;3.50;2.75;;;;;;;4.32;95.78;99230.38;5035332;28;20132;-72
2023/11/20 06:55:08;;;;;;;1.23;1.15;;;;;;;4.31;95.87;99239.63;5034273;28;20446;-72
2023/11/20 06:57:37;;;;;;;2.17;1.98;;;;;;;4.30;95.86;99237.06;5035490;28;20570;-71
2023/11/20 07:00:11;;;;;;;1.08;0.98;;;;;;;4.34;96.11;99233.78;5035463;28;20096;-71
2023/11/20 07:02:42;;;;;;;0.98;0.90;;;;;;;4.40;96.25;99236.38;5035201;28;20084;-71
2023/11/20 07:05:16;;;;;;;3.20;2.47;;;;;;;4.44;95.83;99245.75;5034599;28;20045;-72
2023/11/20 07:07:52;;;;;;;1.63;1.52;;;;;;;4.40;96.15;99249.00;5034891;28;20046;-71
2023/11/20 07:10:25;;;;;;;3.78;2.50;;;;;;;4.36;96.48;99254.84;5034998;28;20041;-71
2023/11/20 07:12:56;;;;;;;0.95;0.95;;;;;;;4.40;96.14;99259.13;5035191;28;20133;-71
2023/11/20 07:15:25;;;;;;;3.25;2.90;;;;;;;4.44;96.23;99251.63;5048564;28;20048;-71
2023/11/20 07:17:54;;;;;;;3.70;2.70;;;;;;;4.48;96.61;99243.28;5054704;28;20534;-71
2023/11/20 07:20:23;;;;;;;1.40;1.30;;;;;;;4.52;96.13;99244.16;5055090;28;20262;-71
2023/11/20 07:22:53;;;;;;;1.15;1.05;;;;;;;4.55;96.25;99239.16;5054535;28;20052;-71
2023/11/20 07:25:23;;;;;;;1.38;1.27;;;;;;;4.57;96.38;99252.66;5040397;28;20045;-71
2023/11/20 07:27:52;;;;;;;2.67;2.45;;;;;;;4.58;96.37;99254.38;5033446;28;20038;-71
2023/11/20 07:30:22;;;;;;;1.75;1.65;;;;;;;4.56;96.21;99248.44;5035091;28;20091;-70
2023/11/20 07:32:50;;;;;;;2.42;2.13;;;;;;;4.58;96.34;99244.28;5034722;28;20076;-70
2023/11/20 07:35:19;;;;;;;2.33;1.80;;;;;;;4.61;96.65;99241.78;5033996;28;20041;-71
2023/11/20 07:37:48;;;;;;;1.90;1.80;;;;;;;4.66;96.55;99242.69;5034411;28;20390;-71
2023/11/20 07:40:19;;;;;;;0.80;0.80;;;;;;;4.64;96.59;99235.09;5034337;28;20042;-71
2023/11/20 07:42:48;;;;;;;1.00;0.98;;;;;;;4.69;96.80;99237.69;5034315;28;20073;-71
2023/11/20 07:45:17;;;;;;;1.52;1.00;;;;;;;4.71;96.73;99234.38;5034534;28;20049;-69
2023/11/20 07:47:46;;;;;;;0.53;0.53;;;;;;;4.73;96.84;99247.03;5037684;28;20045;-71
2023/11/20 07:50:15;;;;;;;1.30;1.20;;;;;;;4.78;96.69;99253.00;5034648;28;20060;-68
2023/11/20 07:52:43;;;;;;;1.48;1.38;;;;;;;4.89;96.81;99251.50;5033571;28;20049;-70
2023/11/20 07:55:13;;;;;;;0.70;0.70;;;;;;;4.94;96.92;99242.31;5034182;28;20054;-71
2023/11/20 07:57:43;;;;;;;2.75;2.05;;;;;;;4.93;96.65;99243.13;5034020;28;20128;-70
2023/11/20 08:00:13;;;;;;;1.27;1.17;;;;;;;4.95;97.09;99236.41;5034625;28;20061;-71
2023/11/20 08:02:42;;;;;;;2.20;1.98;;;;;;;4.98;96.76;99226.34;5034150;28;20072;-72
2023/11/20 08:05:11;;;;;;;1.03;1.03;;;;;;;5.03;96.86;99232.31;5033504;28;20087;-71
2023/11/20 08:07:42;;;;;;;1.92;1.83;;;;;;;5.08;96.58;99233.25;5034696;28;20539;-71
2023/11/20 08:10:11;;;;;;;1.88;1.75;;;;;;;5.13;96.49;99230.75;5033325;28;20060;-71
2023/11/20 08:12:40;;;;;;;0.70;0.70;;;;;;;5.23;96.68;99225.84;5034153;28;20124;-70
2023/11/20 08:15:12;;;;;;;1.10;1.05;;;;;;;5.26;96.53;99219.97;5033804;28;20080;-71
2023/11/20 08:17:41;;;;;;;1.52;1.42;;;;;;;5.24;96.64;99209.84;5034035;28;20080;-71
2023/11/20 08:20:11;;;;;;;4.50;2.67;;;;;;;5.26;96.81;99218.28;5033193;28;20041;-71
2023/11/20 08:22:40;;;;;;;1.20;1.10;;;;;;;5.23;96.62;99218.25;5033614;28;20049;-71
2023/11/20 08:25:10;;;;;;;;;;;;;;;5.16;96.24;99211.41;5034080;28;20049;-71
2023/11/20 08:27:41;;;;;;;;;;;;;;;5.10;96.20;99221.47;5034307;28;19921;-70
2023/11/20 08:30:14;;;;;;;1.40;1.02;;;;;;;5.10;96.20;99226.50;5033715;28;19928;-71
2023/11/20 08:32:42;;;;;;;3.75;2.22;;;;;;;5.18;96.45;99229.16;5033257;28;20111;-71
2023/11/20 08:35:11;;;;;;;1.60;1.50;;;;;;;5.19;96.63;99234.22;5033450;28;20129;-71
2023/11/20 08:37:40;;;;;;;3.10;2.80;;;;;;;5.20;96.36;99223.28;5033495;28;20045;-70
2023/11/20 08:40:14;;;;;;;1.90;1.20;;;;;;;5.17;96.13;99228.28;5032499;28;20095;-72
2023/11/20 08:42:44;;;;;;;1.30;1.20;;;;;;;5.17;96.48;99233.34;5033605;28;20045;-70
2023/11/20 08:45:14;;;;;;;4.75;1.52;;;;;;;5.19;96.40;99218.19;5032341;28;20380;-71
2023/11/20 08:47:43;;;;;;;2.40;2.05;;;;;;;5.29;96.23;99225.94;5034416;28;20045;-70
2023/11/20 08:50:14;;;;;;;1.90;1.50;;;;;;;5.39;96.39;99215.09;5032772;28;20499;-71
2023/11/20 08:52:43;;;;;;;6.40;3.38;;;;;;;5.51;96.02;99214.38;5039700;28;20044;-70
2023/11/20 08:55:12;;;;;;;2.58;2.35;;;;;;;5.57;96.50;99211.91;5041028;28;20056;-72
2023/11/20 08:57:41;;;;;;;15.07;12.77;;;;;;;5.61;96.05;99215.34;5037625;28;20034;-71
2023/11/20 09:00:14;;;;;;;2.67;2.43;;;;;;;5.53;95.92;99214.41;5033271;28;20042;-70
2023/11/20 09:02:46;;;;;;;3.67;2.30;;;;;;;5.55;95.65;99210.19;5045875;28;20509;-72
2023/11/20 09:05:15;;;;;;;1.92;1.77;;;;;;;5.55;96.13;99207.66;5053188;28;20056;-71
2023/11/20 09:07:44;;;;;;;1.17;1.10;;;;;;;5.61;95.90;99206.06;5053931;28;20472;-71
2023/11/20 09:10:13;;;;;;;1.58;1.48;;;;;;;5.63;95.96;99199.34;5047292;28;20045;-71
2023/11/20 09:12:43;;;;;;;3.20;2.88;;;;;;;5.65;96.09;99191.75;5033515;28;20111;-72
2023/11/20 09:15:12;;;;;;;4.70;3.60;;;;;;;5.73;96.23;99197.75;5033413;28;20073;-71
2023/11/20 09:17:42;;;;;;;3.28;2.97;;;;;;;5.80;95.90;99191.91;5033962;28;20400;-72
2023/11/20 09:20:18;;;;;;;1.27;1.17;;;;;;;5.82;95.97;99190.25;5036972;28;20443;-71
2023/11/20 09:22:47;;;;;;;1.10;1.10;;;;;;;5.88;96.61;99183.59;5036468;28;20045;-71
2023/11/20 09:25:16;;;;;;;3.42;3.13;;;;;;;5.97;96.36;99185.38;5037004;28;20128;-71
2023/11/20 09:27:47;;;;;;;2.85;2.15;;;;;;;5.94;95.95;99171.00;5036462;28;20046;-70
2023/11/20 09:30:17;;;;;;;1.83;1.73;;;;;;;6.19;96.64;99182.19;5037056;28;20433;-71
2023/11/20 09:32:46;;;;;;;2.50;2.30;;;;;;;6.25;97.20;99179.72;5035815;28;20045;-70
2023/11/20 09:35:18;;;;;;;2.23;2.10;;;;;;;6.35;96.79;99176.44;5036630;28;20073;-71
2023/11/20 09:37:48;;;;;;;1.25;1.15;;;;;;;6.39;96.73;99164.59;5036481;28;20310;-71
2023/11/20 09:40:17;;;;;;;1.65;1.48;;;;;;;6.44;96.71;99166.34;5036970;28;20038;-71
2023/11/20 09:42:47;;;;;;;1.33;1.23;;;;;;;6.43;97.12;99161.28;5052263;28;20518;-70
2023/11/20 09:45:28;;;;;;;2.25;2.05;;;;;;;6.45;97.00;99160.47;5036852;28;20109;-71
2023/11/20 09:48:00;;;;;;;3.60;2.38;;;;;;;6.44;96.28;99158.75;5049345;28;20399;-70
2023/11/20 09:50:31;;;;;;;2.45;2.22;;;;;;;6.49;97.21;99167.22;5037563;28;20460;-70
2023/11/20 09:53:00;;;;;;;5.57;3.72;;;;;;;6.55;97.53;99157.13;5036453;28;20607;-71
2023/11/20 09:55:30;;;;;;;3.13;2.40;;;;;;;6.61;97.59;99156.31;5036660;28;20040;-71
2023/11/20 09:57:59;;;;;;;3.53;3.25;;;;;;;6.72;97.27;99160.63;5035970;28;20104;-71
2023/11/20 10:00:28;;;;;;;6.38;3.72;;;;;;;6.83;97.66;99152.22;5036564;28;20495;-71
2023/11/20 10:02:57;;;;;;;2.33;1.67;;;;;;;6.91;97.09;99145.53;5036134;28;20103;-71
2023/11/20 10:05:33;;;;;;;4.63;2.83;;;;;;;7.01;96.71;99142.16;5036501;28;20279;-71
2023/11/20 10:08:03;;;;;;;1.95;1.67;;;;;;;7.10;97.17;99143.06;5048975;28;20128;-70
2023/11/20 10:10:34;;;;;;;3.22;2.92;;;;;;;7.12;97.46;99130.41;5056121;28;20124;-70
2023/11/20 10:13:08;;;;;;;3.83;2.08;;;;;;;7.18;97.16;99140.56;5046211;28;20402;-70
2023/11/20 10:15:39;;;;;;;1.67;1.52;;;;;;;7.19;96.78;99139.72;5036221;28;20072;-70
2023/11/20 10:18:09;;;;;;;1.83;1.75;;;;;;;7.15;97.57;99115.19;5035812;28;20099;-71
2023/11/20 10:20:50;;;;;;;1.25;1.15;;;;;;;7.27;96.49;99120.31;5035220;28;20045;-71
2023/11/20 10:23:20;;;;;;;4.15;1.95;;;;;;;7.31;97.53;99127.06;5036111;28;20431;-71
2023/11/20 10:25:50;;;;;;;2.58;2.30;;;;;;;7.31;97.45;99124.53;5035945;28;20046;-71
2023/11/20 10:28:22;;;;;;;1.00;0.95;;;;;;;7.30;97.11;99125.38;5035384;28;20061;-70
2023/11/20 10:30:53;;;;;;;2.15;1.95;;;;;;;7.30;96.85;99120.28;5035789;28;20037;-71
2023/11/20 10:33:23;;;;;;;1.80;1.70;;;;;;;7.33;96.92;99120.31;5035551;28;20045;-68
2023/11/20 10:35:54;;;;;;;3.67;1.83;;;;;;;7.38;96.68;99123.72;5035081;28;20053;-72
2023/11/20 10:38:24;;;;;;;2.08;1.45;;;;;;;7.43;96.62;99117.81;5035700;28;20046;-71
2023/11/20 10:40:57;;;;;;;4.28;2.15;;;;;;;7.48;97.17;99119.50;5035845;28;20132;-71
2023/11/20 10:43:27;;;;;;;3.85;3.13;;;;;;;7.43;97.00;99116.97;5034475;28;20041;-72
2023/11/20 10:45:58;;;;;;;2.05;1.92;;;;;;;7.39;96.66;99118.63;5035046;28;20052;-69
2023/11/20 10:48:33;;;;;;;2.75;2.53;;;;;;;7.37;96.59;99122.00;5055182;28;20120;-70
2023/11/20 10:51:08;;;;;;;2.10;1.90;;;;;;;7.30;96.13;99110.16;5055150;28;20075;-71
2023/11/20 10:53:40;;;;;;;1.55;1.45;;;;;;;7.24;95.69;99105.06;5055085;28;20102;-71
2023/11/20 10:56:11;;;;;;;5.60;3.20;;;;;;;7.24;96.27;99105.91;5051388;28;20072;-70
2023/11/20 10:58:41;;;;;;;1.73;1.63;;;;;;;7.22;96.36;99094.06;5035234;28;20095;-71
2023/11/20 11:01:10;;;;;;;1.88;1.73;;;;;;;7.27;96.92;99092.41;5035132;28;20559;-72
2023/11/20 11:03:40;;;;;;;3.85;3.50;;;;;;;7.27;96.57;99084.78;5035343;28;20048;-71
2023/11/20 11:06:13;;;;;;;1.88;1.73;;;;;;;7.28;96.32;99087.31;5035085;28;20061;-71
2023/11/20 11:08:45;;;;;;;1.75;1.65;;;;;;;7.28;96.61;99081.38;5034980;28;20048;-72
2023/11/20 11:11:15;;;;;;;5.32;2.70;;;;;;;7.24;96.36;99082.22;5034576;28;20399;-71
2023/11/20 11:13:45;;;;;;;1.90;1.75;;;;;;;7.27;95.90;99082.25;5035257;28;20045;-72
2023/11/20 11:16:22;;;;;;;3.22;2.92;;;;;;;7.29;96.02;99083.09;5034852;28;20518;-71
2023/11/20 11:19:02;;;;;;;4.40;2.80;;;;;;;7.33;95.95;99079.69;5034329;28;20121;-71
2023/11/20 11:21:41;;;;;;;4.07;3.67;;;;;;;7.40;96.56;99076.34;5034042;28;20091;-71
2023/11/20 11:24:13;;;;;;;3.85;2.63;;;;;;;7.47;96.39;99078.03;5035012;28;20407;-71
2023/11/20 11:26:52;;;;;;;2.20;1.95;;;;;;;7.49;95.79;99076.34;5034643;28;20046;-72
2023/11/20 11:29:27;;;;;;;4.88;4.30;;;;;;;7.38;96.01;99053.50;5034305;28;20041;-71
2023/11/20 11:32:24;;;;;;;4.30;3.38;;;;;;;7.45;96.05;99074.66;5034816;28;20041;-71
2023/11/20 11:35:17;;;;;;;2.83;2.05;;;;;;;7.45;96.39;99069.56;5034676;28;20049;-71
2023/11/20 11:37:54;;;;;;;1.73;1.63;;;;;;;7.48;96.46;99069.59;5034425;28;20049;-71
2023/11/20 11:40:35;;;;;;;3.22;2.95;;;;;;;7.51;96.02;99072.09;5033281;28;20053;-72
2023/11/20 11:43:10;;;;;;;1.55;1.45;;;;;;;7.52;95.71;99065.34;5034728;28;20049;-71
2023/11/20 11:45:45;;;;;;;1.92;1.80;;;;;;;7.52;96.27;99063.66;5034371;28;20049;-70
2023/11/20 11:48:14;;;;;;;1.88;1.77;;;;;;;7.50;96.55;99062.81;5034239;28;20045;-71
2023/11/20 11:50:43;;;;;;;4.35;3.13;;;;;;;7.51;96.74;99064.50;5050050;28;20045;-71
2023/11/20 11:53:13;;;;;;;1.27;1.17;;;;;;;7.52;96.40;99056.03;5041680;28;20127;-71
2023/11/20 11:55:44;;;;;;;3.08;2.78;;;;;;;7.52;96.76;99055.19;5034356;28;20042;-71
2023/11/20 11:58:15;;;;;;;2.78;2.45;;;;;;;7.52;96.77;99056.03;5034125;28;20372;-71